Latest Weather Observations for Evans Head

IDN60801

Issued at 1:32 pm EST Wednesday 1 June 2016 (issued every 30 minutes, with the page automatically refreshed every 10 minutes)

About weather observations | Map of weather stations | Latest weather observations for NSW | Other Formats
Station Details ID: 058212 Name: EVANS HEAD RAAF BOMBING RANGE AWS Lat: -29.18 Lon: 153.40 Height: 62.5 m
Data from the previous 72 hours. | See also: Recent months at Evans Head
Date/Time
EST
Temp
°C
App
Temp
°C
Dew
Point
Rel
Hum
%
Delta-T
°C
Wind Press
QNH
hPa
Press
MSL
hPa
Rain
since 9 am
mm
Dir
 
Spd
km/h
Gust
km/h
Spd
kts
Gust
kts
01/01:30pm 19.2 16.4 14.2 73 2.9 SSE 22 30 12 16 1024.5 1024.5 0.0
01/01:00pm 19.8 16.3 14.4 71 3.1 SSE 26 35 14 19 1024.7 1024.7 0.0
01/12:30pm 20.1 16.2 14.5 70 3.3 SSE 28 37 15 20 1024.9 1024.9 0.0
01/12:00pm 20.0 16.9 14.4 70 3.2 SSE 24 33 13 18 1025.2 1025.2 0.0
01/11:30am 20.3 18.1 14.4 69 3.4 SSE 19 28 10 15 1025.9 1025.9 0.0
01/11:00am 19.4 17.4 13.8 70 3.2 S 17 24 9 13 1026.4 1026.4 0.0
01/10:30am 18.6 15.8 13.2 71 3.1 SSE 20 28 11 15 1026.4 1026.4 0.0
01/10:00am 18.3 16.1 13.4 73 2.8 S 17 26 9 14 1026.5 1026.5 0.0
01/09:30am 16.6 14.2 12.6 77 2.2 SSW 17 28 9 15 1026.7 1026.6 0.0
01/09:00am 14.9 13.0 11.7 81 1.7 SW 13 19 7 10 1026.7 1026.6 0.0
01/08:30am 13.2 10.8 10.0 81 1.7 SW 13 19 7 10 1026.9 1026.8 0.0
01/08:00am 13.3 10.0 9.7 79 1.8 SSW 17 24 9 13 1026.5 1026.4 0.0
01/07:30am 12.9 9.3 9.7 81 1.6 SW 19 30 10 16 1026.3 1026.2 0.0
01/07:00am 12.3 8.6 9.3 82 1.5 WSW 19 24 10 13 1025.9 1025.8 0.0
01/06:30am 12.0 8.3 9.4 84 1.3 WSW 19 24 10 13 1025.4 1025.3 0.0
01/06:00am 12.0 8.6 9.0 82 1.5 WSW 17 22 9 12 1025.6 1025.5 0.0
01/05:30am 11.9 8.5 9.1 83 1.4 WSW 17 22 9 12 1025.3 1025.2 0.0
01/05:00am 11.5 8.1 9.1 85 1.2 WSW 17 20 9 11 1024.9 1024.8 0.0
01/04:30am 11.9 8.2 9.3 84 1.3 W 19 24 10 13 1024.7 1024.6 0.0
01/04:00am 12.3 8.7 9.7 84 1.3 W 19 22 10 12 1024.6 1024.5 0.0
01/03:30am 11.8 8.9 9.7 87 1.1 WNW 15 19 8 10 1024.7 1024.6 0.0
01/03:00am 12.3 9.5 9.9 85 1.2 W 15 20 8 11 1024.7 1024.6 0.0
01/02:30am 12.0 9.6 10.2 89 0.9 W 13 19 7 10 1025.0 1024.9 0.0
01/02:00am 12.2 10.2 10.1 87 1.1 WSW 11 15 6 8 1025.1 1025.0 0.0
01/01:30am 12.8 10.1 10.3 85 1.3 W 15 20 8 11 1025.0 1024.9 0.0
01/01:00am 12.8 9.9 10.9 88 1.0 W 17 20 9 11 1025.5 1025.4 0.0
01/12:30am 13.2 10.3 10.9 86 1.2 W 17 20 9 11 1025.4 1025.3 0.0
01/12:00am 13.3 11.2 11.2 87 1.1 WNW 13 19 7 10 1025.6 1025.5 0.0
 
Date/Time
EST
Temp
°C
App
Temp
°C
Dew
Point
Rel
Hum
%
Delta-T
°C
Wind Press
QNH
hPa
Press
MSL
hPa
Rain
since 9 am
mm
Dir
 
Spd
km/h
Gust
km/h
Spd
kts
Gust
kts
31/11:30pm 14.3 11.9 11.3 82 1.6 W 15 19 8 10 1025.8 1025.7 0.0
31/11:00pm 14.4 12.0 11.4 82 1.6 W 15 19 8 10 1026.1 1026.0 0.0
31/10:30pm 14.6 12.3 11.9 84 1.5 W 15 17 8 9 1026.3 1026.2 0.0
31/10:00pm 14.5 12.7 12.0 85 1.3 W 13 17 7 9 1026.4 1026.3 0.0
31/09:30pm 14.7 12.9 12.2 85 1.4 W 13 17 7 9 1026.3 1026.2 0.0
31/09:00pm 15.3 13.6 12.4 83 1.6 WSW 13 17 7 9 1026.3 1026.2 0.0
31/08:30pm 15.2 13.6 12.9 86 1.3 W 13 17 7 9 1026.2 1026.1 0.0
31/08:00pm 15.3 14.2 13.0 86 1.3 W 11 17 6 9 1026.3 1026.2 0.0
31/07:30pm 15.9 14.6 13.6 86 1.3 W 13 17 7 9 1026.2 1026.1 0.0
31/07:00pm 15.9 15.0 13.6 86 1.3 WSW 11 15 6 8 1026.0 1025.9 0.0
31/06:30pm 16.2 15.1 13.1 82 1.7 SSW 11 13 6 7 1026.0 1025.9 0.0
31/06:00pm 16.8 15.0 13.3 80 2.0 SW 15 20 8 11 1025.9 1025.8 0.0
31/05:30pm 16.9 15.6 13.8 82 1.8 SSW 13 19 7 10 1025.5 1025.4 0.0
31/05:00pm 17.5 15.9 13.8 79 2.1 SSW 15 20 8 11 1025.4 1025.3 0.0
31/04:30pm 17.8 15.7 13.5 76 2.4 SSW 17 24 9 13 1025.2 1025.1 0.0
31/04:00pm 18.0 15.9 13.5 75 2.5 SSW 17 22 9 12 1025.1 1025.0 0.0
31/03:30pm 18.4 16.7 13.5 73 2.8 SSW 15 20 8 11 1024.9 1024.8 0.0
31/03:00pm 18.5 16.6 13.1 71 3.0 SSW 15 22 8 12 1024.9 1024.8 0.0
31/02:30pm 19.1 17.6 14.1 73 2.9 SSW 15 22 8 12 1025.0 1024.9 0.0
31/02:00pm 19.5 17.4 13.7 69 3.3 SSW 17 22 9 12 1025.0 1024.9 0.0
31/01:30pm 20.0 17.4 13.2 65 3.9 SSW 19 26 10 14 1025.1 1025.0 0.0
31/01:00pm 20.3 18.2 13.5 65 3.9 SSW 17 24 9 13 1025.2 1025.1 0.0
31/12:30pm 19.8 17.6 14.4 71 3.1 SSW 19 26 10 14 1025.4 1025.3 0.0
31/12:00pm 20.4 18.5 14.3 68 3.5 SSW 17 24 9 13 1026.0 1025.9 0.0
31/11:30am 18.6 16.3 13.0 70 3.2 SSW 17 22 9 12 1026.3 1026.2 0.0
31/11:00am 19.7 17.6 12.5 63 4.0 SSW 15 20 8 11 1027.0 1026.9 0.0
31/10:30am 19.4 18.2 12.7 65 3.8 SW 11 20 6 11 1027.1 1027.0 0.0
31/10:00am 17.2 15.5 12.5 74 2.6 W 13 17 7 9 1027.4 1027.3 0.0
31/09:30am 16.0 14.0 11.4 74 2.5 W 13 17 7 9 1027.4 1027.3 0.0
31/09:00am 15.5 14.3 11.5 77 2.1 W 9 13 5 7 1027.2 1027.1 0.0
31/08:30am 15.5 13.8 11.1 75 2.4 WSW 11 20 6 11 1026.8 1026.7 0.0
31/08:00am 14.1 12.1 10.1 77 2.1 WSW 11 22 6 12 1026.9 1026.8 0.0
31/07:30am 13.5 11.1 10.1 80 1.8 W 13 20 7 11 1026.8 1026.7 0.0
31/07:00am 12.8 10.4 10.0 83 1.4 W 13 17 7 9 1026.4 1026.3 0.0
31/06:30am 12.7 10.3 10.1 84 1.3 W 13 17 7 9 1025.8 1025.7 0.0
31/06:00am 12.4 10.0 10.1 86 1.2 W 13 19 7 10 1025.9 1025.8 0.0
31/05:30am 12.2 9.4 9.9 86 1.2 W 15 20 8 11 1025.5 1025.4 0.0
31/05:00am 12.2 9.0 10.1 87 1.1 W 17 20 9 11 1025.1 1025.0 0.0
31/04:30am 11.8 8.6 10.0 89 0.9 W 17 20 9 11 1024.9 1024.8 0.0
31/04:00am 11.8 9.0 10.0 89 0.9 W 15 19 8 10 1025.0 1024.9 0.0
31/03:30am 11.9 8.7 10.0 88 1.0 W 17 19 9 10 1024.9 1024.8 0.0
31/03:00am 12.5 9.6 9.5 82 1.5 W 15 19 8 10 1024.8 1024.7 0.0
31/02:30am 13.3 10.3 9.2 76 2.1 W 15 17 8 9 1024.7 1024.6 0.0
31/02:00am 13.6 10.5 8.9 73 2.4 W 15 17 8 9 1024.8 1024.7 0.0
31/01:30am 13.9 10.9 9.1 73 2.4 W 15 17 8 9 1024.9 1024.8 0.0
31/01:00am 13.7 10.6 9.0 73 2.4 W 15 17 8 9 1025.1 1025.0 0.0
31/12:30am 13.9 11.2 8.9 72 2.5 W 13 15 7 8 1024.9 1024.8 0.0
31/12:00am 14.2 11.5 9.0 71 2.6 W 13 15 7 8 1024.8 1024.7 0.0
 
Date/Time
EST
Temp
°C
App
Temp
°C
Dew
Point
Rel
Hum
%
Delta-T
°C
Wind Press
QNH
hPa
Press
MSL
hPa
Rain
since 9 am
mm
Dir
 
Spd
km/h
Gust
km/h
Spd
kts
Gust
kts
30/11:30pm 15.0 12.6 8.7 66 3.2 WSW 11 13 6 7 1025.0 1024.9 0.0
30/11:00pm 15.5 13.8 8.5 63 3.5 WSW 7 9 4 5 1025.1 1025.0 0.0
30/10:30pm 15.7 14.1 8.7 63 3.6 W 7 9 4 5 1025.4 1025.3 0.0
30/10:00pm 15.4 15.0 8.2 62 3.6 CALM 0 0 0 0 1025.4 1025.3 0.0
30/09:30pm 16.9 16.4 7.8 55 4.6 CALM 0 0 0 0 1025.2 1025.1 0.0
30/09:00pm 17.2 16.8 8.1 55 4.6 CALM 0 0 0 0 1025.2 1025.1 0.0
30/08:30pm 16.8 16.5 8.5 58 4.3 CALM 0 0 0 0 1025.0 1024.9 0.0
30/08:00pm 16.8 15.1 8.5 58 4.2 E 7 9 4 5 1024.7 1024.6 0.0
30/07:30pm 17.0 15.1 8.9 59 4.2 ESE 9 9 5 5 1024.3 1024.2 0.0
30/07:00pm 17.1 15.1 8.5 57 4.4 E 9 9 5 5 1024.2 1024.1 0.0
30/06:30pm 17.0 15.5 9.2 60 4.1 E 7 9 4 5 1024.0 1023.9 0.0
30/06:00pm 16.8 15.3 9.0 60 4.0 ENE 7 9 4 5 1023.8 1023.7 0.0
30/05:30pm 16.9 15.4 9.1 60 4.0 E 7 9 4 5 1023.4 1023.3 0.0
30/05:00pm 17.0 15.1 9.2 60 4.0 ESE 9 13 5 7 1023.1 1023.0 0.0
30/04:30pm 16.9 15.1 9.6 62 3.8 SE 9 13 5 7 1022.9 1022.8 0.0
30/04:00pm 17.6 16.7 11.2 66 3.5 SE 7 11 4 6 1022.8 1022.7 0.0
30/03:30pm 17.8 16.7 11.8 68 3.3 S 9 13 5 7 1022.7 1022.6 0.0
30/03:00pm 18.9 17.6 12.6 67 3.5 S 11 17 6 9 1022.4 1022.3 0.0
30/02:30pm 19.3 17.9 12.1 63 4.0 S 11 15 6 8 1022.2 1022.1 0.0
30/02:00pm 19.3 17.1 10.8 58 4.6 S 13 17 7 9 1022.2 1022.1 0.0
30/01:30pm 19.5 17.3 10.8 57 4.7 S 13 17 7 9 1022.3 1022.2 0.0
30/01:00pm 19.5 18.1 10.8 57 4.7 S 9 15 5 8 1022.6 1022.5 0.0
30/12:30pm 20.4 18.8 11.6 57 4.9 SSE 11 15 6 8 1022.8 1022.7 0.0
30/12:00pm 19.8 18.1 10.0 53 5.2 S 9 15 5 8 1023.1 1023.0 0.0
30/11:30am 19.5 19.2 10.0 54 5.1 SSW 2 11 1 6 1023.6 1023.5 0.0
30/11:00am 18.9 17.4 9.1 53 5.1 SW 7 11 4 6 1023.9 1023.8 0.0
30/10:30am 17.8 16.1 8.4 54 4.8 WSW 7 11 4 6 1024.2 1024.1 0.0
30/10:00am 16.6 13.9 7.5 55 4.5 W 11 15 6 8 1024.3 1024.2 0.0
30/09:30am 15.1 12.2 6.4 56 4.2 W 11 15 6 8 1024.2 1024.1 0.0
30/09:00am 13.9 11.1 7.0 63 3.3 W 11 17 6 9 1024.2 1024.1 0.0
30/08:30am 12.9 10.2 5.8 62 3.3 WNW 9 13 5 7 1023.9 1023.8 0.0
30/08:00am 11.9 9.2 5.5 65 3.0 WNW 9 13 5 7 1023.7 1023.6 0.0
30/07:30am 10.5 6.8 4.6 67 2.7 WNW 13 17 7 9 1023.4 1023.3 0.0
30/07:00am 10.1 6.8 4.7 69 2.4 W 11 13 6 7 1023.2 1023.1 0.0
30/06:30am 10.3 6.7 4.9 69 2.4 W 13 15 7 8 1022.7 1022.6 0.0
30/06:00am 10.5 7.1 5.9 73 2.1 WNW 13 15 7 8 1022.3 1022.2 0.0
30/05:30am 10.8 7.0 5.6 70 2.4 WNW 15 17 8 9 1021.9 1021.8 0.0
30/05:00am 10.8 7.3 5.6 70 2.4 W 13 17 7 9 1021.5 1021.4 0.0
30/04:30am 10.3 6.8 5.3 71 2.3 WNW 13 17 7 9 1021.2 1021.1 0.0
30/04:00am 10.4 6.9 5.6 72 2.2 WNW 13 15 7 8 1021.0 1020.9 0.0
30/03:30am 11.0 7.6 5.7 70 2.5 W 13 15 7 8 1020.9 1020.8 0.0
30/03:00am 10.8 7.4 5.8 71 2.3 WNW 13 15 7 8 1020.8 1020.7 0.0
30/02:30am 10.9 7.9 5.9 71 2.3 WNW 11 13 6 7 1020.7 1020.6 0.0
30/02:00am 11.5 8.1 5.8 68 2.6 W 13 15 7 8 1020.7 1020.6 0.0
30/01:30am 11.7 8.3 5.8 67 2.8 W 13 15 7 8 1020.7 1020.6 0.0
30/01:00am 12.0 8.7 6.3 68 2.7 WSW 13 17 7 9 1020.6 1020.5 0.0
30/12:30am 12.7 9.5 6.7 67 2.9 W 13 17 7 9 1020.5 1020.4 0.0
30/12:00am 13.5 11.2 7.3 66 3.0 W 9 11 5 6 1020.4 1020.3 0.0
 
Date/Time
EST
Temp
°C
App
Temp
°C
Dew
Point
Rel
Hum
%
Delta-T
°C
Wind Press
QNH
hPa
Press
MSL
hPa
Rain
since 9 am
mm
Dir
 
Spd
km/h
Gust
km/h
Spd
kts
Gust
kts
29/11:30pm 13.7 11.4 7.5 66 3.0 W 9 11 5 6 1020.4 1020.3 0.0
29/11:00pm 13.5 11.2 7.3 66 3.0 WNW 9 11 5 6 1020.5 1020.4 0.0
29/10:30pm 14.2 12.5 7.7 65 3.2 NNW 6 6 3 3 1020.6 1020.5 0.0
29/10:00pm 13.5 11.6 7.7 68 2.9 NNW 7 9 4 5 1020.5 1020.4 0.0
29/09:30pm 13.1 10.9 7.8 70 2.6 NW 9 9 5 5 1020.3 1020.2 0.0
29/09:00pm 13.4 11.1 7.6 68 2.8 NW 9 9 5 5 1020.2 1020.1 0.0
29/08:30pm 13.8 11.7 6.7 62 3.4 N 7 9 4 5 1020.0 1019.9 0.0
29/08:00pm 15.1 13.3 7.2 59 3.9 NE 6 9 3 5 1019.7 1019.6 0.0
29/07:30pm 15.6 13.8 7.9 60 3.9 ENE 7 9 4 5 1019.4 1019.3 0.0
29/07:00pm 15.1 12.8 7.4 60 3.8 NE 9 11 5 6 1019.0 1018.9 0.0
29/06:30pm 14.9 12.9 7.0 59 3.9 NE 7 11 4 6 1018.6 1018.5 0.0
29/06:00pm 14.5 12.1 7.1 61 3.6 NE 9 11 5 6 1018.3 1018.2 0.0
29/05:30pm 15.1 12.4 7.2 59 3.9 NE 11 13 6 7 1017.9 1017.8 0.0
29/05:00pm 15.4 13.0 6.9 57 4.2 NE 9 13 5 7 1017.6 1017.5 0.0
29/04:30pm 15.9 14.0 7.4 57 4.2 NNE 7 13 4 7 1017.4 1017.3 0.0
29/04:00pm 16.5 13.6 6.3 51 5.0 ENE 11 13 6 7 1017.1 1016.9 0.0
29/03:30pm 17.5 15.1 7.0 50 5.2 NE 9 13 5 7 1016.9 1016.7 0.0
29/03:00pm 17.9 15.3 6.1 46 5.8 ENE 9 13 5 7 1016.5 1016.3 0.0
29/02:30pm 18.3 15.3 6.2 45 6.0 E 11 17 6 9 1016.4 1016.2 0.0
29/02:00pm 18.5 15.4 5.7 43 6.3 ESE 11 15 6 8 1016.3 1016.1 0.0

Other Formats:

Comma delimited format used in spreadsheet applications
http://www.bom.gov.au/fwo/IDN60801/IDN60801.94598.axf

JavaScript Object Notation format (JSON) in row-major order
http://www.bom.gov.au/fwo/IDN60801/IDN60801.94598.json